CheckWX is a tool to help pilots better visualize weather data.  It is not intended as a substitute for an official pre-flight weather briefing.

14:21:26 UTC

DAAT METAR
Aguenar – Hadj Bey Akhamok Airport
Tamanrasset, Algeria
Current

21 mins ago

DAAT 221400Z 35008KT 310V030 8000 FEW040CB BKN046 26/01 Q1016
Observed
Apr-22 @ 14:00 UTC
Wind
  • 350° at 8 KTS
Visibility
7,998 meters
Flight Rules
MVFR
Cloud Levels
  • Few at 4,000' AGL
  • Broken at 4,600' AGL
Temperature
26°C / 79°F
Dewpoint
C / 34°F
Humidity
20%
Altimeter
30" Hg
Pressure
1015.92 hPa
Previous

51 mins ago

DAAT 221330Z 34011KT 8000 SCT046 SCT100 26/02 Q1016
Observed
Apr-22 @ 13:30 UTC
Wind
  • 340° at 11 KTS
Visibility
7,998 meters
Flight Rules
MVFR
Cloud Levels
  • Scattered at 4,600' AGL
  • Scattered at 10,000' AGL
Temperature
26°C / 79°F
Dewpoint
C / 36°F
Humidity
21%
Altimeter
30" Hg
Pressure
1015.92 hPa
Previous

1 hour ago

DAAT 221300Z 34009KT 300V010 8000 SCT046 SCT100 27/00 Q1016
Observed
Apr-22 @ 13:00 UTC
Wind
  • 340° at 9 KTS
Visibility
7,998 meters
Flight Rules
MVFR
Cloud Levels
  • Scattered at 4,600' AGL
  • Scattered at 10,000' AGL
Temperature
27°C / 81°F
Dewpoint
C / 32°F
Humidity
17%
Altimeter
30" Hg
Pressure
1015.92 hPa